sensor_id;sensor_type;location;lat;lon;timestamp;P1;durP1;ratioP1;P2;durP2;ratioP2
10880;SDS011;5493;48.884;8.338;2024-01-30T00:00:17;6.97;;;3.70;;
10880;SDS011;5493;48.884;8.338;2024-01-30T00:02:44;6.23;;;3.70;;
10880;SDS011;5493;48.884;8.338;2024-01-30T00:05:12;6.77;;;3.73;;
10880;SDS011;5493;48.884;8.338;2024-01-30T00:07:38;7.13;;;3.70;;
10880;SDS011;5493;48.884;8.338;2024-01-30T00:10:04;6.20;;;3.50;;
10880;SDS011;5493;48.884;8.338;2024-01-30T00:12:32;5.33;;;3.13;;
10880;SDS011;5493;48.884;8.338;2024-01-30T00:14:58;5.73;;;3.50;;
10880;SDS011;5493;48.884;8.338;2024-01-30T00:17:25;4.40;;;3.00;;
10880;SDS011;5493;48.884;8.338;2024-01-30T00:19:52;7.40;;;3.40;;
10880;SDS011;5493;48.884;8.338;2024-01-30T00:22:20;6.10;;;3.17;;
10880;SDS011;5493;48.884;8.338;2024-01-30T00:24:46;5.87;;;3.53;;
10880;SDS011;5493;48.884;8.338;2024-01-30T00:27:13;3.23;;;2.60;;
10880;SDS011;5493;48.884;8.338;2024-01-30T00:29:40;3.63;;;2.63;;
10880;SDS011;5493;48.884;8.338;2024-01-30T00:32:06;4.40;;;2.63;;
10880;SDS011;5493;48.884;8.338;2024-01-30T00:34:33;3.50;;;2.13;;
10880;SDS011;5493;48.884;8.338;2024-01-30T00:36:59;3.00;;;2.30;;
10880;SDS011;5493;48.884;8.338;2024-01-30T00:39:27;3.27;;;2.57;;
10880;SDS011;5493;48.884;8.338;2024-01-30T00:41:54;3.20;;;2.40;;
10880;SDS011;5493;48.884;8.338;2024-01-30T00:44:20;2.73;;;2.17;;
10880;SDS011;5493;48.884;8.338;2024-01-30T00:46:47;3.67;;;2.37;;
10880;SDS011;5493;48.884;8.338;2024-01-30T00:49:13;4.03;;;2.50;;
10880;SDS011;5493;48.884;8.338;2024-01-30T00:51:40;4.20;;;2.53;;
10880;SDS011;5493;48.884;8.338;2024-01-30T00:54:06;5.90;;;3.00;;
10880;SDS011;5493;48.884;8.338;2024-01-30T00:56:34;5.00;;;2.47;;
10880;SDS011;5493;48.884;8.338;2024-01-30T00:59:01;4.70;;;2.13;;
10880;SDS011;5493;48.884;8.338;2024-01-30T01:01:27;2.73;;;1.90;;
10880;SDS011;5493;48.884;8.338;2024-01-30T01:03:54;3.73;;;2.27;;
10880;SDS011;5493;48.884;8.338;2024-01-30T01:06:20;4.90;;;2.10;;
10880;SDS011;5493;48.884;8.338;2024-01-30T01:08:47;3.70;;;2.43;;
10880;SDS011;5493;48.884;8.338;2024-01-30T01:11:13;2.87;;;2.40;;
10880;SDS011;5493;48.884;8.338;2024-01-30T01:13:41;3.83;;;2.10;;
10880;SDS011;5493;48.884;8.338;2024-01-30T01:16:07;3.87;;;2.50;;
10880;SDS011;5493;48.884;8.338;2024-01-30T01:18:34;3.73;;;1.93;;
10880;SDS011;5493;48.884;8.338;2024-01-30T01:21:00;4.00;;;2.13;;
10880;SDS011;5493;48.884;8.338;2024-01-30T01:23:27;2.87;;;2.20;;
10880;SDS011;5493;48.884;8.338;2024-01-30T01:25:54;4.83;;;1.80;;
10880;SDS011;5493;48.884;8.338;2024-01-30T01:28:20;2.83;;;1.60;;
10880;SDS011;5493;48.884;8.338;2024-01-30T01:30:48;4.90;;;2.43;;
10880;SDS011;5493;48.884;8.338;2024-01-30T01:33:15;3.57;;;1.90;;
10880;SDS011;5493;48.884;8.338;2024-01-30T01:35:41;5.40;;;2.00;;
10880;SDS011;5493;48.884;8.338;2024-01-30T01:38:08;2.97;;;2.07;;
10880;SDS011;5493;48.884;8.338;2024-01-30T01:40:34;2.50;;;1.87;;
10880;SDS011;5493;48.884;8.338;2024-01-30T01:43:03;2.33;;;1.70;;
10880;SDS011;5493;48.884;8.338;2024-01-30T01:45:30;5.47;;;2.53;;
10880;SDS011;5493;48.884;8.338;2024-01-30T01:47:58;4.23;;;2.50;;
10880;SDS011;5493;48.884;8.338;2024-01-30T01:50:24;4.13;;;2.30;;
10880;SDS011;5493;48.884;8.338;2024-01-30T01:52:51;2.50;;;1.80;;
10880;SDS011;5493;48.884;8.338;2024-01-30T01:55:20;4.00;;;2.03;;
10880;SDS011;5493;48.884;8.338;2024-01-30T01:57:49;3.93;;;2.63;;
10880;SDS011;5493;48.884;8.338;2024-01-30T02:00:16;3.23;;;2.50;;
10880;SDS011;5493;48.884;8.338;2024-01-30T02:02:44;3.23;;;2.40;;
10880;SDS011;5493;48.884;8.338;2024-01-30T02:05:13;2.57;;;2.13;;
10880;SDS011;5493;48.884;8.338;2024-01-30T02:07:40;2.53;;;1.67;;
10880;SDS011;5493;48.884;8.338;2024-01-30T02:10:07;2.33;;;1.90;;
10880;SDS011;5493;48.884;8.338;2024-01-30T02:12:34;4.13;;;1.97;;
10880;SDS011;5493;48.884;8.338;2024-01-30T02:15:01;4.80;;;1.60;;
10880;SDS011;5493;48.884;8.338;2024-01-30T02:17:27;2.57;;;1.93;;
10880;SDS011;5493;48.884;8.338;2024-01-30T02:19:54;2.40;;;1.80;;
10880;SDS011;5493;48.884;8.338;2024-01-30T02:22:22;3.23;;;1.80;;
10880;SDS011;5493;48.884;8.338;2024-01-30T02:24:49;3.50;;;1.83;;
10880;SDS011;5493;48.884;8.338;2024-01-30T02:27:16;3.10;;;2.00;;
10880;SDS011;5493;48.884;8.338;2024-01-30T02:29:42;3.33;;;1.93;;
10880;SDS011;5493;48.884;8.338;2024-01-30T02:32:09;2.53;;;1.80;;
10880;SDS011;5493;48.884;8.338;2024-01-30T02:34:35;4.03;;;1.73;;
10880;SDS011;5493;48.884;8.338;2024-01-30T02:37:01;4.27;;;1.80;;
10880;SDS011;5493;48.884;8.338;2024-01-30T02:39:29;2.47;;;1.87;;
10880;SDS011;5493;48.884;8.338;2024-01-30T02:41:56;2.43;;;1.63;;
10880;SDS011;5493;48.884;8.338;2024-01-30T02:44:23;3.37;;;1.80;;
10880;SDS011;5493;48.884;8.338;2024-01-30T02:46:49;2.27;;;1.70;;
10880;SDS011;5493;48.884;8.338;2024-01-30T02:49:16;3.10;;;1.77;;
10880;SDS011;5493;48.884;8.338;2024-01-30T02:51:42;2.67;;;1.90;;
10880;SDS011;5493;48.884;8.338;2024-01-30T02:54:09;3.70;;;1.90;;
10880;SDS011;5493;48.884;8.338;2024-01-30T02:56:37;2.27;;;1.53;;
10880;SDS011;5493;48.884;8.338;2024-01-30T02:59:03;1.70;;;1.60;;
10880;SDS011;5493;48.884;8.338;2024-01-30T03:01:29;3.43;;;1.90;;
10880;SDS011;5493;48.884;8.338;2024-01-30T03:03:56;2.23;;;1.80;;
10880;SDS011;5493;48.884;8.338;2024-01-30T03:06:22;1.87;;;1.60;;
10880;SDS011;5493;48.884;8.338;2024-01-30T03:08:49;2.70;;;1.73;;
10880;SDS011;5493;48.884;8.338;2024-01-30T03:11:15;2.20;;;1.80;;
10880;SDS011;5493;48.884;8.338;2024-01-30T03:13:43;3.13;;;1.80;;
10880;SDS011;5493;48.884;8.338;2024-01-30T03:16:10;3.30;;;2.00;;
10880;SDS011;5493;48.884;8.338;2024-01-30T03:18:36;3.10;;;1.60;;
10880;SDS011;5493;48.884;8.338;2024-01-30T03:21:03;1.73;;;1.60;;
10880;SDS011;5493;48.884;8.338;2024-01-30T03:23:30;2.87;;;1.70;;
10880;SDS011;5493;48.884;8.338;2024-01-30T03:25:57;2.33;;;1.40;;
10880;SDS011;5493;48.884;8.338;2024-01-30T03:28:23;3.47;;;1.70;;
10880;SDS011;5493;48.884;8.338;2024-01-30T03:30:51;3.37;;;2.00;;
10880;SDS011;5493;48.884;8.338;2024-01-30T03:33:18;2.60;;;1.50;;
10880;SDS011;5493;48.884;8.338;2024-01-30T03:35:44;1.97;;;1.60;;
10880;SDS011;5493;48.884;8.338;2024-01-30T03:38:11;1.97;;;1.40;;
10880;SDS011;5493;48.884;8.338;2024-01-30T03:40:37;1.60;;;1.40;;
10880;SDS011;5493;48.884;8.338;2024-01-30T03:43:04;3.17;;;1.77;;
10880;SDS011;5493;48.884;8.338;2024-01-30T03:45:31;2.37;;;1.90;;
10880;SDS011;5493;48.884;8.338;2024-01-30T03:47:59;2.47;;;1.90;;
10880;SDS011;5493;48.884;8.338;2024-01-30T03:50:25;6.40;;;3.23;;
10880;SDS011;5493;48.884;8.338;2024-01-30T03:52:53;7.13;;;3.40;;
10880;SDS011;5493;48.884;8.338;2024-01-30T03:55:19;4.43;;;2.40;;
10880;SDS011;5493;48.884;8.338;2024-01-30T03:57:46;3.30;;;1.87;;
10880;SDS011;5493;48.884;8.338;2024-01-30T04:00:13;2.40;;;1.50;;
10880;SDS011;5493;48.884;8.338;2024-01-30T04:02:40;2.50;;;1.80;;
10880;SDS011;5493;48.884;8.338;2024-01-30T04:05:08;1.93;;;1.67;;
10880;SDS011;5493;48.884;8.338;2024-01-30T04:07:35;1.97;;;1.73;;
10880;SDS011;5493;48.884;8.338;2024-01-30T04:10:02;3.20;;;1.83;;
10880;SDS011;5493;48.884;8.338;2024-01-30T04:12:30;2.20;;;1.93;;
10880;SDS011;5493;48.884;8.338;2024-01-30T04:14:57;2.57;;;1.83;;
10880;SDS011;5493;48.884;8.338;2024-01-30T04:17:23;3.30;;;1.90;;
10880;SDS011;5493;48.884;8.338;2024-01-30T04:19:50;2.90;;;1.90;;
10880;SDS011;5493;48.884;8.338;2024-01-30T04:22:18;3.53;;;2.17;;
10880;SDS011;5493;48.884;8.338;2024-01-30T04:24:44;3.43;;;2.23;;
10880;SDS011;5493;48.884;8.338;2024-01-30T04:27:10;7.30;;;3.53;;
10880;SDS011;5493;48.884;8.338;2024-01-30T04:29:37;6.67;;;3.13;;
10880;SDS011;5493;48.884;8.338;2024-01-30T04:32:04;3.97;;;2.53;;
10880;SDS011;5493;48.884;8.338;2024-01-30T04:34:31;4.80;;;2.90;;
10880;SDS011;5493;48.884;8.338;2024-01-30T04:36:56;3.33;;;2.43;;
10880;SDS011;5493;48.884;8.338;2024-01-30T04:39:24;6.40;;;3.43;;
10880;SDS011;5493;48.884;8.338;2024-01-30T04:41:50;8.60;;;3.43;;
10880;SDS011;5493;48.884;8.338;2024-01-30T04:44:17;8.70;;;3.73;;
10880;SDS011;5493;48.884;8.338;2024-01-30T04:46:44;8.33;;;4.20;;
10880;SDS011;5493;48.884;8.338;2024-01-30T04:49:10;5.23;;;3.53;;
10880;SDS011;5493;48.884;8.338;2024-01-30T04:51:37;5.13;;;2.97;;
10880;SDS011;5493;48.884;8.338;2024-01-30T04:54:04;3.87;;;2.37;;
10880;SDS011;5493;48.884;8.338;2024-01-30T04:56:31;5.53;;;2.40;;
10880;SDS011;5493;48.884;8.338;2024-01-30T04:58:58;2.20;;;1.83;;
10880;SDS011;5493;48.884;8.338;2024-01-30T05:01:25;2.27;;;2.07;;
10880;SDS011;5493;48.884;8.338;2024-01-30T05:03:51;2.30;;;1.97;;
10880;SDS011;5493;48.884;8.338;2024-01-30T05:06:23;2.50;;;2.17;;
10880;SDS011;5493;48.884;8.338;2024-01-30T05:08:50;3.53;;;1.87;;
10880;SDS011;5493;48.884;8.338;2024-01-30T05:11:17;3.27;;;2.23;;
10880;SDS011;5493;48.884;8.338;2024-01-30T05:13:44;2.53;;;2.33;;
10880;SDS011;5493;48.884;8.338;2024-01-30T05:16:11;4.90;;;2.80;;
10880;SDS011;5493;48.884;8.338;2024-01-30T05:18:37;5.00;;;3.30;;
10880;SDS011;5493;48.884;8.338;2024-01-30T05:21:05;6.27;;;2.97;;
10880;SDS011;5493;48.884;8.338;2024-01-30T05:23:31;7.37;;;3.50;;
10880;SDS011;5493;48.884;8.338;2024-01-30T05:25:58;4.47;;;2.80;;
10880;SDS011;5493;48.884;8.338;2024-01-30T05:28:25;4.20;;;2.70;;
10880;SDS011;5493;48.884;8.338;2024-01-30T05:30:53;6.20;;;2.67;;
10880;SDS011;5493;48.884;8.338;2024-01-30T05:33:20;3.13;;;2.13;;
10880;SDS011;5493;48.884;8.338;2024-01-30T05:35:46;5.97;;;3.03;;
10880;SDS011;5493;48.884;8.338;2024-01-30T05:38:13;6.00;;;3.97;;
10880;SDS011;5493;48.884;8.338;2024-01-30T05:40:41;6.03;;;3.80;;
10880;SDS011;5493;48.884;8.338;2024-01-30T05:43:07;7.50;;;3.87;;
10880;SDS011;5493;48.884;8.338;2024-01-30T05:45:34;6.03;;;3.63;;
10880;SDS011;5493;48.884;8.338;2024-01-30T05:48:02;5.87;;;3.20;;
10880;SDS011;5493;48.884;8.338;2024-01-30T05:50:29;4.87;;;3.60;;
10880;SDS011;5493;48.884;8.338;2024-01-30T05:52:55;6.03;;;3.40;;
10880;SDS011;5493;48.884;8.338;2024-01-30T05:55:22;5.43;;;3.07;;
10880;SDS011;5493;48.884;8.338;2024-01-30T05:57:49;6.07;;;4.00;;
10880;SDS011;5493;48.884;8.338;2024-01-30T06:00:16;6.13;;;3.53;;
10880;SDS011;5493;48.884;8.338;2024-01-30T06:02:43;5.70;;;3.87;;
10880;SDS011;5493;48.884;8.338;2024-01-30T06:05:11;6.67;;;3.63;;
10880;SDS011;5493;48.884;8.338;2024-01-30T06:07:38;4.97;;;3.13;;
10880;SDS011;5493;48.884;8.338;2024-01-30T06:10:04;3.40;;;2.87;;
10880;SDS011;5493;48.884;8.338;2024-01-30T06:12:33;3.50;;;2.60;;
10880;SDS011;5493;48.884;8.338;2024-01-30T06:15:00;4.97;;;2.87;;
10880;SDS011;5493;48.884;8.338;2024-01-30T06:17:27;7.67;;;5.67;;
10880;SDS011;5493;48.884;8.338;2024-01-30T06:19:53;6.33;;;4.43;;
10880;SDS011;5493;48.884;8.338;2024-01-30T06:22:22;7.33;;;4.43;;
10880;SDS011;5493;48.884;8.338;2024-01-30T06:24:48;4.00;;;3.60;;
10880;SDS011;5493;48.884;8.338;2024-01-30T06:27:15;3.37;;;2.77;;
10880;SDS011;5493;48.884;8.338;2024-01-30T06:29:42;3.83;;;2.50;;
10880;SDS011;5493;48.884;8.338;2024-01-30T06:32:09;7.20;;;2.80;;
10880;SDS011;5493;48.884;8.338;2024-01-30T06:34:36;3.30;;;2.60;;
10880;SDS011;5493;48.884;8.338;2024-01-30T06:37:04;3.73;;;2.70;;
10880;SDS011;5493;48.884;8.338;2024-01-30T06:39:31;4.70;;;3.33;;
10880;SDS011;5493;48.884;8.338;2024-01-30T06:41:58;5.00;;;3.17;;
10880;SDS011;5493;48.884;8.338;2024-01-30T06:44:24;5.40;;;3.30;;
10880;SDS011;5493;48.884;8.338;2024-01-30T06:46:51;5.23;;;3.70;;
10880;SDS011;5493;48.884;8.338;2024-01-30T06:49:17;4.83;;;3.87;;
10880;SDS011;5493;48.884;8.338;2024-01-30T06:51:44;6.10;;;3.33;;
10880;SDS011;5493;48.884;8.338;2024-01-30T06:54:10;5.97;;;2.90;;
10880;SDS011;5493;48.884;8.338;2024-01-30T06:56:38;3.97;;;2.93;;
10880;SDS011;5493;48.884;8.338;2024-01-30T06:59:05;5.40;;;2.97;;
10880;SDS011;5493;48.884;8.338;2024-01-30T07:01:31;5.17;;;2.80;;
10880;SDS011;5493;48.884;8.338;2024-01-30T07:03:58;4.90;;;2.83;;
10880;SDS011;5493;48.884;8.338;2024-01-30T07:06:24;5.63;;;3.40;;
10880;SDS011;5493;48.884;8.338;2024-01-30T07:08:51;6.17;;;3.47;;
10880;SDS011;5493;48.884;8.338;2024-01-30T07:11:18;6.10;;;3.20;;
10880;SDS011;5493;48.884;8.338;2024-01-30T07:13:48;4.27;;;2.77;;
10880;SDS011;5493;48.884;8.338;2024-01-30T07:16:14;4.90;;;2.93;;
10880;SDS011;5493;48.884;8.338;2024-01-30T07:18:41;5.33;;;3.13;;
10880;SDS011;5493;48.884;8.338;2024-01-30T07:21:07;3.80;;;2.90;;
10880;SDS011;5493;48.884;8.338;2024-01-30T07:23:34;6.20;;;2.93;;
10880;SDS011;5493;48.884;8.338;2024-01-30T07:26:04;4.07;;;2.40;;
10880;SDS011;5493;48.884;8.338;2024-01-30T07:28:31;4.10;;;2.43;;
10880;SDS011;5493;48.884;8.338;2024-01-30T07:30:59;6.93;;;2.40;;
10880;SDS011;5493;48.884;8.338;2024-01-30T07:33:26;4.87;;;3.50;;
10880;SDS011;5493;48.884;8.338;2024-01-30T07:35:52;6.03;;;3.73;;
10880;SDS011;5493;48.884;8.338;2024-01-30T07:38:19;3.97;;;3.37;;
10880;SDS011;5493;48.884;8.338;2024-01-30T07:40:45;5.10;;;3.50;;
10880;SDS011;5493;48.884;8.338;2024-01-30T07:43:12;4.10;;;3.20;;
10880;SDS011;5493;48.884;8.338;2024-01-30T07:45:39;5.40;;;3.70;;
10880;SDS011;5493;48.884;8.338;2024-01-30T07:48:07;5.47;;;2.87;;
10880;SDS011;5493;48.884;8.338;2024-01-30T07:50:34;2.97;;;2.67;;
10880;SDS011;5493;48.884;8.338;2024-01-30T07:53:00;3.47;;;2.80;;
10880;SDS011;5493;48.884;8.338;2024-01-30T07:55:28;5.77;;;3.03;;
10880;SDS011;5493;48.884;8.338;2024-01-30T07:57:56;6.43;;;4.13;;
10880;SDS011;5493;48.884;8.338;2024-01-30T08:00:23;4.47;;;3.63;;
10880;SDS011;5493;48.884;8.338;2024-01-30T08:02:50;5.03;;;4.17;;
10880;SDS011;5493;48.884;8.338;2024-01-30T08:05:20;6.40;;;4.70;;
10880;SDS011;5493;48.884;8.338;2024-01-30T08:07:47;7.80;;;4.63;;
10880;SDS011;5493;48.884;8.338;2024-01-30T08:10:14;38.87;;;15.87;;
10880;SDS011;5493;48.884;8.338;2024-01-30T08:12:40;67.57;;;25.67;;
10880;SDS011;5493;48.884;8.338;2024-01-30T08:15:08;40.03;;;17.83;;
10880;SDS011;5493;48.884;8.338;2024-01-30T08:17:34;60.63;;;24.90;;
10880;SDS011;5493;48.884;8.338;2024-01-30T08:20:01;75.40;;;32.83;;
10880;SDS011;5493;48.884;8.338;2024-01-30T08:22:30;49.87;;;23.17;;
10880;SDS011;5493;48.884;8.338;2024-01-30T08:24:57;21.17;;;9.63;;
10880;SDS011;5493;48.884;8.338;2024-01-30T08:27:24;9.33;;;5.20;;
10880;SDS011;5493;48.884;8.338;2024-01-30T08:29:50;12.37;;;7.60;;
10880;SDS011;5493;48.884;8.338;2024-01-30T08:32:17;10.00;;;6.87;;
10880;SDS011;5493;48.884;8.338;2024-01-30T08:34:43;10.10;;;7.43;;
10880;SDS011;5493;48.884;8.338;2024-01-30T08:37:10;12.97;;;8.57;;
10880;SDS011;5493;48.884;8.338;2024-01-30T08:39:37;10.43;;;6.60;;
10880;SDS011;5493;48.884;8.338;2024-01-30T08:42:04;9.23;;;5.57;;
10880;SDS011;5493;48.884;8.338;2024-01-30T08:44:33;7.73;;;4.73;;
10880;SDS011;5493;48.884;8.338;2024-01-30T08:46:59;6.87;;;4.73;;
10880;SDS011;5493;48.884;8.338;2024-01-30T08:49:26;5.60;;;4.13;;
10880;SDS011;5493;48.884;8.338;2024-01-30T08:51:53;8.20;;;4.33;;
10880;SDS011;5493;48.884;8.338;2024-01-30T08:54:19;6.53;;;4.07;;
10880;SDS011;5493;48.884;8.338;2024-01-30T08:56:47;7.57;;;4.77;;
10880;SDS011;5493;48.884;8.338;2024-01-30T08:59:14;8.13;;;5.63;;
10880;SDS011;5493;48.884;8.338;2024-01-30T09:01:40;9.17;;;6.07;;
10880;SDS011;5493;48.884;8.338;2024-01-30T09:04:07;9.60;;;5.80;;
10880;SDS011;5493;48.884;8.338;2024-01-30T09:06:33;9.47;;;5.13;;
10880;SDS011;5493;48.884;8.338;2024-01-30T09:09:00;9.87;;;6.70;;
10880;SDS011;5493;48.884;8.338;2024-01-30T09:11:26;11.80;;;7.57;;
10880;SDS011;5493;48.884;8.338;2024-01-30T09:13:54;10.13;;;5.87;;
10880;SDS011;5493;48.884;8.338;2024-01-30T09:16:21;10.13;;;6.53;;
10880;SDS011;5493;48.884;8.338;2024-01-30T09:18:47;11.07;;;6.17;;
10880;SDS011;5493;48.884;8.338;2024-01-30T09:21:14;9.10;;;6.70;;
10880;SDS011;5493;48.884;8.338;2024-01-30T09:23:41;9.57;;;6.77;;
10880;SDS011;5493;48.884;8.338;2024-01-30T09:26:07;14.03;;;8.67;;
10880;SDS011;5493;48.884;8.338;2024-01-30T09:28:34;14.83;;;8.50;;
10880;SDS011;5493;48.884;8.338;2024-01-30T09:31:02;7.90;;;5.03;;
10880;SDS011;5493;48.884;8.338;2024-01-30T09:33:29;7.53;;;5.10;;
10880;SDS011;5493;48.884;8.338;2024-01-30T09:35:55;9.03;;;5.63;;
10880;SDS011;5493;48.884;8.338;2024-01-30T09:38:22;15.20;;;9.83;;
10880;SDS011;5493;48.884;8.338;2024-01-30T09:40:50;15.60;;;10.10;;
10880;SDS011;5493;48.884;8.338;2024-01-30T09:43:21;15.77;;;8.83;;
10880;SDS011;5493;48.884;8.338;2024-01-30T09:45:49;12.83;;;9.33;;
10880;SDS011;5493;48.884;8.338;2024-01-30T09:48:18;13.40;;;8.80;;
10880;SDS011;5493;48.884;8.338;2024-01-30T09:50:45;13.33;;;8.57;;
10880;SDS011;5493;48.884;8.338;2024-01-30T09:53:12;15.20;;;10.03;;
10880;SDS011;5493;48.884;8.338;2024-01-30T09:55:40;15.97;;;9.13;;
10880;SDS011;5493;48.884;8.338;2024-01-30T09:58:09;15.40;;;9.83;;
10880;SDS011;5493;48.884;8.338;2024-01-30T10:00:35;16.20;;;10.47;;
10880;SDS011;5493;48.884;8.338;2024-01-30T10:03:02;17.97;;;12.13;;
10880;SDS011;5493;48.884;8.338;2024-01-30T10:05:31;18.80;;;11.33;;
10880;SDS011;5493;48.884;8.338;2024-01-30T10:07:58;18.93;;;11.63;;
10880;SDS011;5493;48.884;8.338;2024-01-30T10:10:25;17.47;;;9.73;;
10880;SDS011;5493;48.884;8.338;2024-01-30T10:12:52;16.30;;;9.50;;
10880;SDS011;5493;48.884;8.338;2024-01-30T10:15:18;13.80;;;9.97;;
10880;SDS011;5493;48.884;8.338;2024-01-30T10:17:45;12.63;;;8.60;;
10880;SDS011;5493;48.884;8.338;2024-01-30T10:20:12;11.10;;;8.17;;
10880;SDS011;5493;48.884;8.338;2024-01-30T10:22:41;12.10;;;7.83;;
10880;SDS011;5493;48.884;8.338;2024-01-30T10:25:09;9.23;;;6.77;;
10880;SDS011;5493;48.884;8.338;2024-01-30T10:27:36;9.73;;;5.97;;
10880;SDS011;5493;48.884;8.338;2024-01-30T10:30:02;9.23;;;6.80;;
10880;SDS011;5493;48.884;8.338;2024-01-30T10:32:29;10.97;;;6.60;;
10880;SDS011;5493;48.884;8.338;2024-01-30T10:34:56;10.10;;;7.57;;
10880;SDS011;5493;48.884;8.338;2024-01-30T10:37:23;9.20;;;7.03;;
10880;SDS011;5493;48.884;8.338;2024-01-30T10:39:53;11.70;;;7.10;;
10880;SDS011;5493;48.884;8.338;2024-01-30T10:42:22;11.27;;;7.03;;
10880;SDS011;5493;48.884;8.338;2024-01-30T10:44:55;9.53;;;6.73;;
10880;SDS011;5493;48.884;8.338;2024-01-30T10:47:26;10.60;;;7.10;;
10880;SDS011;5493;48.884;8.338;2024-01-30T10:49:53;10.80;;;6.77;;
10880;SDS011;5493;48.884;8.338;2024-01-30T10:52:21;11.70;;;7.63;;
10880;SDS011;5493;48.884;8.338;2024-01-30T10:54:50;10.03;;;6.90;;
10880;SDS011;5493;48.884;8.338;2024-01-30T10:57:19;10.70;;;7.07;;
10880;SDS011;5493;48.884;8.338;2024-01-30T10:59:48;12.87;;;8.27;;
10880;SDS011;5493;48.884;8.338;2024-01-30T11:02:17;11.40;;;7.07;;
10880;SDS011;5493;48.884;8.338;2024-01-30T11:04:45;14.37;;;8.43;;
10880;SDS011;5493;48.884;8.338;2024-01-30T11:07:15;9.73;;;7.37;;
10880;SDS011;5493;48.884;8.338;2024-01-30T11:09:48;9.43;;;7.30;;
10880;SDS011;5493;48.884;8.338;2024-01-30T11:12:15;11.73;;;6.47;;
10880;SDS011;5493;48.884;8.338;2024-01-30T11:14:43;8.57;;;6.17;;
10880;SDS011;5493;48.884;8.338;2024-01-30T11:17:09;10.03;;;7.07;;
10880;SDS011;5493;48.884;8.338;2024-01-30T11:19:37;11.10;;;7.17;;
10880;SDS011;5493;48.884;8.338;2024-01-30T11:22:06;10.80;;;7.10;;
10880;SDS011;5493;48.884;8.338;2024-01-30T11:24:38;8.63;;;6.50;;
10880;SDS011;5493;48.884;8.338;2024-01-30T11:27:07;8.40;;;5.20;;
10880;SDS011;5493;48.884;8.338;2024-01-30T11:29:35;11.47;;;7.63;;
10880;SDS011;5493;48.884;8.338;2024-01-30T11:32:03;12.40;;;7.03;;
10880;SDS011;5493;48.884;8.338;2024-01-30T11:34:30;8.97;;;6.10;;
10880;SDS011;5493;48.884;8.338;2024-01-30T11:36:59;9.43;;;6.23;;
10880;SDS011;5493;48.884;8.338;2024-01-30T11:39:30;9.07;;;5.83;;
10880;SDS011;5493;48.884;8.338;2024-01-30T11:41:56;7.27;;;5.00;;
10880;SDS011;5493;48.884;8.338;2024-01-30T11:44:24;8.13;;;6.03;;
10880;SDS011;5493;48.884;8.338;2024-01-30T11:46:51;6.60;;;4.80;;
10880;SDS011;5493;48.884;8.338;2024-01-30T11:49:19;12.83;;;5.37;;
10880;SDS011;5493;48.884;8.338;2024-01-30T11:51:46;10.13;;;5.67;;
10880;SDS011;5493;48.884;8.338;2024-01-30T11:54:14;9.63;;;6.03;;
10880;SDS011;5493;48.884;8.338;2024-01-30T11:56:41;9.07;;;5.50;;
10880;SDS011;5493;48.884;8.338;2024-01-30T11:59:08;9.10;;;5.33;;
10880;SDS011;5493;48.884;8.338;2024-01-30T12:01:34;8.03;;;5.20;;
10880;SDS011;5493;48.884;8.338;2024-01-30T12:04:01;7.77;;;5.63;;
10880;SDS011;5493;48.884;8.338;2024-01-30T12:06:29;7.07;;;5.00;;
10880;SDS011;5493;48.884;8.338;2024-01-30T12:08:56;7.50;;;5.73;;
10880;SDS011;5493;48.884;8.338;2024-01-30T12:11:24;12.93;;;6.20;;
10880;SDS011;5493;48.884;8.338;2024-01-30T12:13:50;6.40;;;5.13;;
10880;SDS011;5493;48.884;8.338;2024-01-30T12:16:17;8.23;;;5.60;;
10880;SDS011;5493;48.884;8.338;2024-01-30T12:18:44;8.77;;;5.40;;
10880;SDS011;5493;48.884;8.338;2024-01-30T12:21:11;6.77;;;5.47;;
10880;SDS011;5493;48.884;8.338;2024-01-30T12:23:39;7.13;;;5.50;;
10880;SDS011;5493;48.884;8.338;2024-01-30T12:26:06;7.20;;;5.60;;
10880;SDS011;5493;48.884;8.338;2024-01-30T12:28:32;8.70;;;4.60;;
10880;SDS011;5493;48.884;8.338;2024-01-30T12:31:01;35.10;;;17.97;;
10880;SDS011;5493;48.884;8.338;2024-01-30T12:33:28;8.50;;;5.97;;
10880;SDS011;5493;48.884;8.338;2024-01-30T12:35:55;15.20;;;9.67;;
10880;SDS011;5493;48.884;8.338;2024-01-30T12:38:22;10.30;;;7.07;;
10880;SDS011;5493;48.884;8.338;2024-01-30T12:40:50;7.50;;;5.60;;
10880;SDS011;5493;48.884;8.338;2024-01-30T12:43:20;6.87;;;5.23;;
10880;SDS011;5493;48.884;8.338;2024-01-30T12:45:47;6.83;;;4.87;;
10880;SDS011;5493;48.884;8.338;2024-01-30T12:48:13;10.90;;;6.23;;
10880;SDS011;5493;48.884;8.338;2024-01-30T12:50:40;10.93;;;6.00;;
10880;SDS011;5493;48.884;8.338;2024-01-30T12:53:07;7.63;;;5.50;;
10880;SDS011;5493;48.884;8.338;2024-01-30T12:55:34;7.00;;;4.93;;
10880;SDS011;5493;48.884;8.338;2024-01-30T12:58:02;8.87;;;6.03;;
10880;SDS011;5493;48.884;8.338;2024-01-30T13:00:28;7.47;;;5.17;;
10880;SDS011;5493;48.884;8.338;2024-01-30T13:02:55;8.17;;;5.77;;
10880;SDS011;5493;48.884;8.338;2024-01-30T13:05:21;8.53;;;5.73;;
10880;SDS011;5493;48.884;8.338;2024-01-30T13:07:48;8.43;;;6.07;;
10880;SDS011;5493;48.884;8.338;2024-01-30T13:10:14;8.90;;;6.17;;
10880;SDS011;5493;48.884;8.338;2024-01-30T13:12:41;6.90;;;5.63;;
10880;SDS011;5493;48.884;8.338;2024-01-30T13:15:09;10.63;;;6.40;;
10880;SDS011;5493;48.884;8.338;2024-01-30T13:17:36;8.30;;;6.13;;
10880;SDS011;5493;48.884;8.338;2024-01-30T13:20:03;10.90;;;5.93;;
10880;SDS011;5493;48.884;8.338;2024-01-30T13:22:30;9.87;;;6.93;;
10880;SDS011;5493;48.884;8.338;2024-01-30T13:24:56;13.23;;;7.40;;
10880;SDS011;5493;48.884;8.338;2024-01-30T13:27:23;10.93;;;7.10;;
10880;SDS011;5493;48.884;8.338;2024-01-30T13:29:50;10.77;;;6.53;;
10880;SDS011;5493;48.884;8.338;2024-01-30T13:32:18;6.77;;;5.33;;
10880;SDS011;5493;48.884;8.338;2024-01-30T13:34:44;9.17;;;5.67;;
10880;SDS011;5493;48.884;8.338;2024-01-30T13:37:10;8.87;;;5.93;;
10880;SDS011;5493;48.884;8.338;2024-01-30T13:39:37;11.17;;;6.20;;
10880;SDS011;5493;48.884;8.338;2024-01-30T13:42:04;12.50;;;6.50;;
10880;SDS011;5493;48.884;8.338;2024-01-30T13:44:30;10.47;;;6.43;;
10880;SDS011;5493;48.884;8.338;2024-01-30T13:46:57;8.73;;;6.37;;
10880;SDS011;5493;48.884;8.338;2024-01-30T13:49:25;9.33;;;6.30;;
10880;SDS011;5493;48.884;8.338;2024-01-30T13:51:52;8.90;;;5.50;;
10880;SDS011;5493;48.884;8.338;2024-01-30T13:54:18;9.60;;;6.77;;
10880;SDS011;5493;48.884;8.338;2024-01-30T13:56:45;9.83;;;7.27;;
10880;SDS011;5493;48.884;8.338;2024-01-30T13:59:11;11.30;;;7.70;;
10880;SDS011;5493;48.884;8.338;2024-01-30T14:01:38;9.73;;;7.20;;
10880;SDS011;5493;48.884;8.338;2024-01-30T14:04:04;10.70;;;6.80;;
10880;SDS011;5493;48.884;8.338;2024-01-30T14:06:32;11.33;;;7.53;;
10880;SDS011;5493;48.884;8.338;2024-01-30T14:08:59;11.57;;;6.70;;
10880;SDS011;5493;48.884;8.338;2024-01-30T14:11:25;8.67;;;6.57;;
10880;SDS011;5493;48.884;8.338;2024-01-30T14:13:52;8.50;;;6.27;;
10880;SDS011;5493;48.884;8.338;2024-01-30T14:16:18;9.87;;;6.60;;
10880;SDS011;5493;48.884;8.338;2024-01-30T14:18:45;8.73;;;6.37;;
10880;SDS011;5493;48.884;8.338;2024-01-30T14:21:11;8.10;;;5.67;;
10880;SDS011;5493;48.884;8.338;2024-01-30T14:23:39;11.33;;;6.67;;
10880;SDS011;5493;48.884;8.338;2024-01-30T14:26:05;10.60;;;5.73;;
10880;SDS011;5493;48.884;8.338;2024-01-30T14:28:32;8.53;;;6.07;;
10880;SDS011;5493;48.884;8.338;2024-01-30T14:30:58;7.73;;;5.53;;
10880;SDS011;5493;48.884;8.338;2024-01-30T14:33:25;7.17;;;5.20;;
10880;SDS011;5493;48.884;8.338;2024-01-30T14:35:52;9.40;;;6.13;;
10880;SDS011;5493;48.884;8.338;2024-01-30T14:38:18;9.33;;;6.07;;
10880;SDS011;5493;48.884;8.338;2024-01-30T14:40:46;9.67;;;6.03;;
10880;SDS011;5493;48.884;8.338;2024-01-30T14:43:12;10.70;;;6.77;;
10880;SDS011;5493;48.884;8.338;2024-01-30T14:45:40;8.90;;;6.93;;
10880;SDS011;5493;48.884;8.338;2024-01-30T14:48:07;9.63;;;6.37;;
10880;SDS011;5493;48.884;8.338;2024-01-30T14:50:34;9.63;;;6.63;;
10880;SDS011;5493;48.884;8.338;2024-01-30T14:53:00;10.83;;;6.43;;
10880;SDS011;5493;48.884;8.338;2024-01-30T14:55:27;10.63;;;6.20;;